Time;durP1;ratioP1;P1;durP2;ratioP2;P2;SDS_P1;SDS_P2;PMS_P1;PMS_P2;Temp;Humidity;BMP_temperature;BMP_pressure;BME280_temperature;BME280_humidity;BME280_pressure;Samples;Min_cycle;Max_cycle;Signal;HPM_P1;HPM_P2
2022/05/04 00:00:19;;;;;;;0.25;0.25;;;;;;;6.28;35.83;97701.50;5114492;28;20122;-61
2022/05/04 00:02:45;;;;;;;0.28;0.28;;;;;;;6.29;36.12;97700.44;5114151;28;20476;-61
2022/05/04 00:05:11;;;;;;;0.20;0.20;;;;;;;6.31;35.87;97695.56;5114311;28;20058;-61
2022/05/04 00:07:37;;;;;;;0.28;0.28;;;;;;;6.34;35.97;97697.00;5114430;28;20101;-61
2022/05/04 00:10:04;;;;;;;0.40;0.35;;;;;;;6.35;35.82;97686.97;5114320;28;20123;-60
2022/05/04 00:12:31;;;;;;;0.50;0.50;;;;;;;6.38;35.99;97686.50;5113947;28;20070;-60
2022/05/04 00:14:56;;;;;;;0.20;0.20;;;;;;;6.40;35.91;97692.53;5114211;28;20028;-62
2022/05/04 00:17:22;;;;;;;0.22;0.22;;;;;;;6.41;35.90;97703.19;5114025;28;20032;-61
2022/05/04 00:19:48;;;;;;;0.20;0.20;;;;;;;6.43;35.69;97683.88;5114564;28;20409;-60
2022/05/04 00:22:20;;;;;;;0.30;0.30;;;;;;;6.47;35.81;97690.50;5114055;28;20035;-61
2022/05/04 00:24:46;;;;;;;0.20;0.20;;;;;;;6.48;35.68;97689.47;5113945;28;20062;-61
2022/05/04 00:27:15;;;;;;;0.20;0.20;;;;;;;6.48;35.64;97690.28;5095585;28;20057;-61
2022/05/04 00:29:44;;;;;;;0.20;0.20;;;;;;;6.49;35.89;97688.38;5113806;28;20494;-61
2022/05/04 00:32:14;;;;;;;0.20;0.20;;;;;;;6.53;35.63;97688.75;5113866;28;20039;-60
2022/05/04 00:34:39;;;;;;;0.25;0.25;;;;;;;6.59;35.69;97687.78;5113624;28;20031;-61
2022/05/04 00:37:06;;;;;;;0.30;0.30;;;;;;;6.65;35.39;97686.84;5113852;28;20093;-61
2022/05/04 00:39:32;;;;;;;0.25;0.25;;;;;;;6.71;35.60;97674.97;5113451;28;20055;-62
2022/05/04 00:42:19;;;;;;;0.20;0.20;;;;;;;6.82;35.39;97678.78;5113745;28;20080;-62
2022/05/04 00:44:47;;;;;;;0.20;0.20;;;;;;;6.88;35.28;97677.81;5113294;28;20088;-62
2022/05/04 00:47:13;;;;;;;0.35;0.35;;;;;;;6.96;35.22;97684.81;5113800;28;20028;-64
2022/05/04 00:49:41;;;;;;;0.40;0.40;;;;;;;7.08;35.09;97680.19;5113747;28;20027;-62
2022/05/04 00:52:08;;;;;;;0.30;0.30;;;;;;;7.23;35.05;97681.56;5113396;28;20059;-63
2022/05/04 00:54:35;;;;;;;0.20;0.20;;;;;;;7.65;34.45;97673.94;5113677;28;20035;-61
2022/05/04 00:57:03;;;;;;;0.20;0.20;;;;;;;9.00;32.77;97668.78;5112798;28;20032;-62
2022/05/04 00:59:30;;;;;;;0.20;0.20;;;;;;;10.51;30.87;97670.97;5113365;28;20119;-61
2022/05/04 01:01:57;;;;;;;0.32;0.30;;;;;;;12.06;29.17;97664.34;5113509;28;20497;-62
2022/05/04 01:04:22;;;;;;;0.30;0.30;;;;;;;13.45;27.76;97669.72;5113117;28;20036;-63
2022/05/04 01:06:48;;;;;;;0.30;0.30;;;;;;;14.53;27.18;97666.28;5120288;27;20069;-61
2022/05/04 01:09:14;;;;;;;0.30;0.30;;;;;;;15.42;26.47;97660.47;5133536;27;20035;-62
2022/05/04 01:11:41;;;;;;;0.25;0.25;;;;;;;16.19;25.95;97657.81;5127527;27;20480;-62
2022/05/04 01:14:12;;;;;;;0.20;0.20;;;;;;;16.96;25.80;97648.25;5113249;28;20028;-64
2022/05/04 01:16:40;;;;;;;0.10;0.10;;;;;;;17.46;25.55;97656.75;5113036;28;20035;-64
2022/05/04 01:19:06;;;;;;;0.20;0.20;;;;;;;18.10;25.16;97652.38;5112913;28;20027;-61
2022/05/04 01:21:33;;;;;;;0.13;0.13;;;;;;;18.61;24.98;97651.16;5113019;28;20031;-62
2022/05/04 01:23:59;;;;;;;0.20;0.20;;;;;;;19.15;24.69;97642.00;5094622;28;20126;-62
2022/05/04 01:26:25;;;;;;;2.28;1.00;;;;;;;19.71;24.50;97654.34;5112885;28;20419;-62
2022/05/04 01:28:51;;;;;;;0.47;0.45;;;;;;;20.33;24.19;97660.03;5113040;28;20036;-64
2022/05/04 01:31:17;;;;;;;0.10;0.10;;;;;;;20.87;23.90;97649.38;5114676;27;20043;-64
2022/05/04 01:33:43;;;;;;;0.20;0.20;;;;;;;21.33;23.59;97650.56;5112244;28;20032;-65
2022/05/04 01:36:08;;;;;;;0.30;0.30;;;;;;;21.84;23.58;97655.44;5112842;28;20032;-67
2022/05/04 01:38:35;;;;;;;0.30;0.30;;;;;;;22.47;23.20;97655.50;5113013;28;20042;-65
2022/05/04 01:41:00;;;;;;;0.10;0.10;;;;;;;22.99;22.79;97651.41;5112694;28;20070;-61
2022/05/04 01:43:26;;;;;;;4.13;0.30;;;;;;;23.21;22.92;97652.19;5112535;28;20032;-66
2022/05/04 01:45:52;;;;;;;0.10;0.10;;;;;;;23.63;22.57;97640.81;5120383;27;20063;-64
2022/05/04 01:48:19;;;;;;;0.20;0.20;;;;;;;24.16;22.43;97640.91;5111626;28;20434;-63
2022/05/04 01:50:44;;;;;;;0.30;0.30;;;;;;;24.51;22.48;97642.31;5111504;28;20055;-62
2022/05/04 01:53:10;;;;;;;0.28;0.28;;;;;;;24.90;21.84;97640.69;5111561;28;20039;-62
2022/05/04 01:55:36;;;;;;;0.30;0.30;;;;;;;25.48;21.79;97637.41;5111537;28;20035;-62
2022/05/04 01:58:02;;;;;;;0.45;0.30;;;;;;;25.82;21.74;97646.28;5111724;28;20031;-61
2022/05/04 02:00:28;;;;;;;0.50;0.50;;;;;;;25.94;21.99;97638.91;5111355;28;20440;-61
2022/05/04 02:02:54;;;;;;;0.20;0.20;;;;;;;26.12;21.60;97645.81;5110653;28;20036;-62
2022/05/04 02:05:21;;;;;;;0.10;0.10;;;;;;;26.20;21.77;97633.53;5111548;28;20058;-65
2022/05/04 02:07:48;;;;;;;0.10;0.10;;;;;;;23.73;23.84;97631.09;5124912;27;20122;-65
2022/05/04 02:10:14;;;;;;;0.10;0.10;;;;;;;20.79;27.11;97636.28;5115036;28;20409;-63
2022/05/04 02:12:40;;;;;;;0.10;0.10;;;;;;;19.43;28.27;97637.88;5131144;27;20039;-65
2022/05/04 02:15:08;;;;;;;0.22;0.22;;;;;;;20.25;26.91;97636.59;5136093;27;20035;-62
2022/05/04 02:17:35;;;;;;;0.10;0.10;;;;;;;22.52;24.45;97634.91;5136344;27;20035;-63
2022/05/04 02:20:01;;;;;;;1.98;0.20;;;;;;;24.72;22.44;97628.97;5136756;27;20469;-62
2022/05/04 02:22:27;;;;;;;0.10;0.10;;;;;;;26.28;21.09;97623.28;5137064;27;20106;-62
2022/05/04 02:24:53;;;;;;;0.10;0.10;;;;;;;27.30;20.19;97614.81;5136647;27;20042;-62
2022/05/04 02:27:19;;;;;;;0.10;0.10;;;;;;;28.05;19.67;97615.31;5137014;27;20030;-62
2022/05/04 02:29:45;;;;;;;0.10;0.10;;;;;;;28.51;19.46;97620.75;5136512;27;20545;-62
2022/05/04 02:32:11;;;;;;;0.10;0.10;;;;;;;28.33;20.11;97617.72;5136489;27;20035;-61
2022/05/04 02:40:06;;;;;;;0.10;0.10;;;;;;;24.99;22.83;97616.06;5138900;27;20425;-62
2022/05/04 02:42:32;;;;;;;0.10;0.10;;;;;;;26.37;21.41;97625.88;5137024;27;20019;-61
2022/05/04 02:44:58;;;;;;;0.10;0.10;;;;;;;25.16;22.52;97619.69;5118575;27;20585;-63
2022/05/04 02:50:39;;;;;;;0.30;0.30;;;;;;;21.41;25.70;97612.56;5619604;22;20053;-63
2022/05/04 02:56:28;;;;;;;0.43;0.40;;;;;;;19.22;27.73;97629.28;5014323;28;20435;-62
2022/05/04 02:58:55;;;;;;;0.63;0.63;;;;;;;22.16;24.07;97614.78;5015518;28;20123;-61
2022/05/04 03:04:06;;;;;;;0.10;0.10;;;;;;;27.35;19.44;97606.09;5017873;28;20139;-59
2022/05/04 03:06:33;;;;;;;0.10;0.10;;;;;;;28.77;18.61;97604.94;5015901;28;20385;-61
2022/05/04 03:08:59;;;;;;;0.20;0.20;;;;;;;30.23;17.95;97595.38;5015989;28;20442;-63
2022/05/04 03:14:08;;;;;;;0.10;0.10;;;;;;;32.08;17.28;97606.72;5014950;28;20037;-62
2022/05/04 03:16:36;;;;;;;0.10;0.10;;;;;;;32.40;17.31;97594.47;5015760;28;20124;-62
2022/05/04 03:19:03;;;;;;;0.20;0.20;;;;;;;32.66;17.29;97595.22;5014414;28;20038;-61
2022/05/04 03:21:29;;;;;;;0.10;0.10;;;;;;;32.71;17.44;97594.81;5015536;28;20029;-60
2022/05/04 03:23:54;;;;;;;0.15;0.15;;;;;;;32.53;17.80;97594.84;5015225;28;20038;-61
2022/05/04 03:26:20;;;;;;;0.28;0.28;;;;;;;32.23;18.21;97601.03;5015482;28;20511;-63
2022/05/04 03:28:46;;;;;;;0.10;0.10;;;;;;;32.26;17.76;97594.56;5015320;28;20037;-62
2022/05/04 03:31:12;;;;;;;0.30;0.30;;;;;;;32.63;17.74;97596.03;5015471;28;20041;-64
2022/05/04 03:33:38;;;;;;;0.10;0.10;;;;;;;32.75;17.69;97587.06;5016064;28;20116;-63
2022/05/04 03:36:04;;;;;;;0.10;0.10;;;;;;;32.90;17.67;97592.69;5016793;28;20479;-61
2022/05/04 03:38:30;;;;;;;0.10;0.10;;;;;;;33.13;17.52;97598.63;5017841;28;20064;-64
2022/05/04 03:40:55;;;;;;;0.40;0.40;;;;;;;33.41;17.38;97585.47;5016733;28;20124;-62
2022/05/04 03:43:21;;;;;;;1.15;0.35;;;;;;;33.69;17.36;97581.59;5016700;28;20044;-62
2022/05/04 03:45:46;;;;;;;0.38;0.38;;;;;;;34.47;16.64;97595.50;5016081;28;20049;-62
2022/05/04 03:48:12;;;;;;;0.10;0.10;;;;;;;35.01;16.74;97582.59;5015616;28;20120;-63
2022/05/04 03:50:38;;;;;;;0.10;0.10;;;;;;;35.28;16.55;97582.66;5015487;28;20543;-63
2022/05/04 03:53:03;;;;;;;0.10;0.10;;;;;;;35.30;16.23;97582.22;5015273;28;20128;-64
2022/05/04 03:55:29;;;;;;;0.10;0.10;;;;;;;35.42;16.63;97584.47;5015609;28;20037;-63
2022/05/04 03:57:55;;;;;;;0.10;0.10;;;;;;;35.47;16.71;97580.28;5015502;28;20069;-62
2022/05/04 04:00:21;;;;;;;0.20;0.20;;;;;;;35.29;16.49;97574.88;5015239;28;20048;-63
2022/05/04 04:02:46;;;;;;;0.10;0.10;;;;;;;35.07;16.98;97578.84;5015331;28;20037;-64
2022/05/04 04:05:12;;;;;;;0.10;0.10;;;;;;;35.38;16.71;97572.28;5015554;28;20144;-62
2022/05/04 04:07:39;;;;;;;0.10;0.10;;;;;;;35.13;17.03;97566.94;5015729;28;20554;-63
2022/05/04 04:10:05;;;;;;;0.10;0.10;;;;;;;34.79;17.02;97564.97;5015121;28;20030;-62
2022/05/04 04:12:31;;;;;;;0.10;0.10;;;;;;;34.52;16.88;97566.50;5014739;28;20045;-63
2022/05/04 04:14:57;;;;;;;0.10;0.10;;;;;;;34.28;17.38;97565.59;5014782;28;20455;-63
2022/05/04 04:17:23;;;;;;;0.10;0.10;;;;;;;34.20;17.40;97559.16;5015513;28;20092;-60
2022/05/04 04:21:50;;;;;;;0.10;0.10;;;;;;;34.10;17.14;97545.00;5014429;28;20403;-63
2022/05/04 04:22:34;;;;;;;0.10;0.10;;;;;;;33.67;17.28;97554.75;5015129;28;20030;-62
2022/05/04 04:25:00;;;;;;;0.10;0.10;;;;;;;34.22;16.70;97548.13;5013210;28;20052;-62
2022/05/04 04:27:26;;;;;;;0.10;0.10;;;;;;;34.36;16.73;97543.50;5014588;28;20038;-62
2022/05/04 04:29:52;;;;;;;0.10;0.10;;;;;;;34.28;16.76;97547.69;5013084;28;20452;-62
2022/05/04 04:32:17;;;;;;;0.20;0.20;;;;;;;34.47;16.85;97535.66;5013414;28;20132;-62
2022/05/04 04:34:43;;;;;;;0.10;0.10;;;;;;;33.27;17.23;97538.03;5014838;28;20447;-63
2022/05/04 04:37:09;;;;;;;0.40;0.40;;;;;;;32.60;17.81;97528.69;5015443;28;20081;-62
2022/05/04 04:39:34;;;;;;;0.30;0.30;;;;;;;31.80;18.27;97530.94;5015475;28;20037;-63
2022/05/04 04:42:00;;;;;;;7.13;1.60;;;;;;;30.99;18.77;97502.97;5016164;28;20037;-67
2022/05/04 04:44:26;;;;;;;0.10;0.10;;;;;;;31.44;18.25;97517.56;5015334;28;20062;-63
2022/05/04 04:46:51;;;;;;;0.65;0.65;;;;;;;31.26;18.19;97517.59;5015167;28;20411;-63
2022/05/04 04:49:17;;;;;;;0.10;0.10;;;;;;;30.07;18.82;97544.72;5014228;28;20137;-63
2022/05/04 04:51:42;;;;;;;0.95;0.20;;;;;;;28.25;20.30;97522.84;5014372;28;20056;-61
2022/05/04 04:54:08;;;;;;;0.10;0.10;;;;;;;28.56;19.81;97535.69;5013768;28;20038;-62
2022/05/04 04:56:34;;;;;;;0.13;0.13;;;;;;;28.24;19.70;97524.03;5013951;28;20033;-61
2022/05/04 04:58:59;;;;;;;0.20;0.20;;;;;;;27.69;19.91;97521.66;5014215;28;20117;-63
2022/05/04 05:01:25;;;;;;;0.57;0.57;;;;;;;27.59;19.72;97507.03;5012910;28;20133;-62
2022/05/04 05:03:51;;;;;;;0.20;0.20;;;;;;;29.04;18.69;97509.59;5013892;28;20052;-63
2022/05/04 05:06:19;;;;;;;0.10;0.10;;;;;;;28.54;18.82;97523.19;5014442;28;20034;-63
2022/05/04 05:08:44;;;;;;;0.10;0.10;;;;;;;27.86;19.15;97511.84;5013926;28;20034;-62
2022/05/04 05:11:10;;;;;;;0.30;0.30;;;;;;;26.48;20.36;97497.44;5014073;28;20530;-62
2022/05/04 05:16:06;;;;;;;0.50;0.50;;;;;;;24.79;21.39;97502.00;5014437;28;20038;-63
2022/05/04 05:16:24;;;;;;;0.68;0.68;;;;;;;23.42;22.40;97496.06;5013970;28;20042;-61
2022/05/04 05:18:50;;;;;;;1.88;0.52;;;;;;;22.48;22.54;97482.91;5013145;28;20041;-64
2022/05/04 05:21:16;;;;;;;0.10;0.10;;;;;;;22.00;22.89;97502.75;5014314;28;20096;-63
2022/05/04 05:23:42;;;;;;;0.28;0.28;;;;;;;21.66;22.77;97484.31;5013853;28;20455;-62
2022/05/04 05:26:07;;;;;;;0.20;0.20;;;;;;;21.45;22.52;97513.03;5016955;28;20108;-63
2022/05/04 05:28:33;;;;;;;0.40;0.40;;;;;;;21.42;22.31;97485.78;5015615;28;20077;-63
2022/05/04 05:30:59;;;;;;;0.85;0.85;;;;;;;21.13;22.45;97506.16;5016104;28;20114;-63
2022/05/04 05:33:25;;;;;;;0.20;0.20;;;;;;;20.87;22.55;97521.03;5016509;28;20124;-62
2022/05/04 05:35:50;;;;;;;0.28;0.28;;;;;;;20.62;22.52;97504.00;5016207;28;20492;-62
2022/05/04 05:38:16;;;;;;;1.38;0.95;;;;;;;20.30;22.67;97499.84;5014478;28;20030;-62
2022/05/04 05:40:42;;;;;;;2.15;1.95;;;;;;;20.05;22.68;97484.81;5014984;28;20038;-63
2022/05/04 05:43:08;;;;;;;0.30;0.30;;;;;;;19.66;22.73;97506.91;5017018;28;20041;-61
2022/05/04 05:45:34;;;;;;;0.73;0.60;;;;;;;19.41;22.79;97494.59;5016943;28;20041;-63
2022/05/04 05:48:00;;;;;;;0.20;0.20;;;;;;;19.01;23.23;97489.94;5015339;28;20041;-62
2022/05/04 05:50:26;;;;;;;0.22;0.22;;;;;;;18.73;23.20;97498.47;5014644;28;20148;-62
2022/05/04 05:52:53;;;;;;;0.22;0.22;;;;;;;18.55;23.22;97497.56;5014588;28;20149;-62
2022/05/04 05:55:19;;;;;;;0.13;0.13;;;;;;;18.40;23.37;97492.41;5015339;28;20813;-62
2022/05/04 05:57:45;;;;;;;0.30;0.30;;;;;;;18.25;23.21;97481.72;5014692;28;20381;-62
2022/05/04 06:00:12;;;;;;;0.60;0.20;;;;;;;18.10;23.49;97469.06;5015239;28;20096;-62
2022/05/04 06:02:38;;;;;;;0.30;0.30;;;;;;;18.08;23.33;97463.81;5016163;28;20045;-61
2022/05/04 06:05:04;;;;;;;0.65;0.65;;;;;;;18.07;23.18;97473.28;5015221;28;20041;-61
2022/05/04 06:07:30;;;;;;;0.20;0.20;;;;;;;18.11;22.88;97440.13;5013154;28;20038;-63
2022/05/04 06:09:55;;;;;;;0.30;0.30;;;;;;;18.16;22.98;97463.03;5016211;28;20034;-63
2022/05/04 06:12:21;;;;;;;0.30;0.30;;;;;;;18.20;22.67;97463.22;5015156;28;20408;-63
2022/05/04 06:14:47;;;;;;;0.10;0.10;;;;;;;18.35;22.46;97468.38;5017552;28;20034;-62
2022/05/04 06:17:13;;;;;;;0.20;0.20;;;;;;;18.46;22.62;97455.03;5017162;28;20419;-64
2022/05/04 06:19:38;;;;;;;0.55;0.30;;;;;;;18.55;22.38;97441.16;5016638;28;20036;-63
2022/05/04 06:22:05;;;;;;;1.00;0.75;;;;;;;18.65;22.28;97456.72;5016540;28;20048;-62
2022/05/04 06:24:31;;;;;;;2.03;1.92;;;;;;;18.47;22.43;97439.16;5015382;28;20038;-62
2022/05/04 06:26:56;;;;;;;0.63;0.63;;;;;;;18.17;22.63;97448.00;5015541;28;20141;-61
2022/05/04 06:34:06;;;;;;;0.17;0.17;;;;;;;18.10;22.76;97436.53;5017665;28;20034;-62
2022/05/04 06:34:51;;;;;;;1.45;1.13;;;;;;;17.88;23.08;97439.31;5015907;28;20045;-62
2022/05/04 06:37:17;;;;;;;1.27;0.30;;;;;;;17.89;22.94;97435.38;5015717;28;20042;-62
2022/05/04 06:39:43;;;;;;;0.52;0.52;;;;;;;17.98;22.85;97427.97;5016290;28;20157;-64
2022/05/04 06:42:09;;;;;;;0.13;0.13;;;;;;;18.05;22.79;97433.91;5018312;28;20149;-64
2022/05/04 06:44:37;;;;;;;0.20;0.20;;;;;;;18.00;22.98;97450.69;5017919;28;20050;-63
2022/05/04 06:47:03;;;;;;;0.98;0.25;;;;;;;18.12;22.82;97412.03;5017271;28;20056;-62
2022/05/04 06:49:29;;;;;;;0.30;0.30;;;;;;;18.17;22.72;97438.88;5015339;28;20073;-62
2022/05/04 06:51:55;;;;;;;0.32;0.32;;;;;;;18.21;22.79;97432.34;5016552;28;20088;-61
2022/05/04 06:54:20;;;;;;;0.30;0.30;;;;;;;18.24;22.70;97430.06;5016640;28;20042;-63
2022/05/04 06:56:46;;;;;;;0.20;0.20;;;;;;;18.28;22.53;97414.41;5020033;28;20100;-62
2022/05/04 06:59:12;;;;;;;0.15;0.15;;;;;;;18.19;22.83;97420.72;5020112;28;20042;-62
2022/05/04 07:01:37;;;;;;;2.53;0.85;;;;;;;18.04;22.87;97423.91;5015045;28;20049;-62
2022/05/04 07:04:03;;;;;;;0.20;0.20;;;;;;;17.99;22.87;97421.25;5016931;28;20125;-62
2022/05/04 07:06:29;;;;;;;1.20;0.63;;;;;;;17.86;22.87;97426.56;5017682;28;20077;-62
2022/05/04 07:08:54;;;;;;;0.30;0.30;;;;;;;17.70;22.99;97394.78;5018220;28;20038;-63
2022/05/04 07:11:20;;;;;;;0.65;0.52;;;;;;;17.55;23.32;97409.00;5017254;28;20053;-61
2022/05/04 07:13:46;;;;;;;0.30;0.30;;;;;;;17.44;23.52;97381.50;5016458;28;20046;-62
2022/05/04 07:16:11;;;;;;;0.52;0.52;;;;;;;17.50;23.08;97391.38;5015770;28;20066;-63
2022/05/04 07:18:37;;;;;;;0.30;0.30;;;;;;;17.57;22.99;97362.34;5014318;28;20064;-61
2022/05/04 07:21:03;;;;;;;7.22;0.50;;;;;;;17.53;23.03;97401.00;5013094;28;20034;-61
2022/05/04 07:23:28;;;;;;;0.25;0.22;;;;;;;17.58;23.00;97386.19;5014943;28;20073;-60
2022/05/04 07:25:54;;;;;;;0.30;0.20;;;;;;;17.61;22.99;97396.69;5013880;28;20455;-62
2022/05/04 07:28:20;;;;;;;0.35;0.35;;;;;;;17.78;22.88;97380.09;5011650;28;20030;-63
2022/05/04 07:30:46;;;;;;;0.30;0.30;;;;;;;17.89;23.00;97380.69;5013472;28;20176;-62
2022/05/04 07:33:11;;;;;;;0.32;0.32;;;;;;;18.07;22.65;97389.13;5016815;28;20087;-62
2022/05/04 07:35:37;;;;;;;0.28;0.28;;;;;;;18.00;22.79;97386.81;5015027;28;20044;-65
2022/05/04 07:38:03;;;;;;;10.63;1.38;;;;;;;17.83;23.01;97368.88;5014855;28;20034;-62
2022/05/04 07:43:16;;;;;;;0.20;0.20;;;;;;;17.91;22.54;97363.72;5016552;28;20419;-64
2022/05/04 07:45:42;;;;;;;0.20;0.20;;;;;;;17.91;22.66;97374.84;5017021;28;20127;-63
2022/05/04 07:48:08;;;;;;;0.10;0.10;;;;;;;17.96;22.70;97381.06;5015436;28;20018;-62
2022/05/04 07:50:33;;;;;;;0.20;0.20;;;;;;;18.06;22.79;97381.94;5015992;28;20135;-61
2022/05/04 07:52:59;;;;;;;0.10;0.10;;;;;;;18.10;22.49;97380.97;5016253;28;20040;-63
2022/05/04 07:55:26;;;;;;;0.90;0.40;;;;;;;18.20;22.42;97364.03;5017731;28;20033;-62
2022/05/04 07:57:52;;;;;;;0.43;0.43;;;;;;;18.25;22.62;97359.47;5017929;28;20463;-63
2022/05/04 08:05:46;;;;;;;0.20;0.20;;;;;;;18.55;22.36;97364.16;5016329;28;20049;-66
2022/05/04 08:08:12;;;;;;;0.20;0.20;;;;;;;18.67;22.26;97338.50;5016803;28;20038;-61
2022/05/04 08:10:40;;;;;;;0.10;0.10;;;;;;;18.73;22.18;97353.88;5017548;28;20042;-61
2022/05/04 08:13:06;;;;;;;0.60;0.60;;;;;;;18.63;22.07;97325.59;5017895;28;20038;-64
2022/05/04 08:15:31;;;;;;;0.30;0.30;;;;;;;18.54;22.31;97356.16;5017806;28;20044;-65
2022/05/04 08:17:58;;;;;;;0.20;0.20;;;;;;;18.49;22.20;97334.03;5017307;28;20041;-62
2022/05/04 08:20:25;;;;;;;0.20;0.20;;;;;;;18.52;22.22;97337.00;5017176;28;20049;-62
2022/05/04 08:22:51;;;;;;;0.25;0.20;;;;;;;18.59;22.28;97335.72;5017678;28;20161;-62
2022/05/04 08:25:17;;;;;;;0.20;0.20;;;;;;;18.70;22.13;97346.19;5016925;28;20025;-63
2022/05/04 08:27:44;;;;;;;0.10;0.10;;;;;;;18.84;22.09;97325.78;5017968;28;20025;-62
2022/05/04 08:30:10;;;;;;;0.15;0.15;;;;;;;18.85;22.04;97317.09;5016948;28;20026;-64
2022/05/04 08:32:36;;;;;;;0.10;0.10;;;;;;;18.74;22.10;97321.34;5018150;28;20038;-63
2022/05/04 08:35:02;;;;;;;0.10;0.10;;;;;;;18.74;21.98;97322.16;5018309;28;20061;-64
2022/05/04 08:37:28;;;;;;;0.17;0.17;;;;;;;18.92;22.03;97327.78;5015348;28;20397;-63
2022/05/04 08:39:57;;;;;;;0.10;0.10;;;;;;;19.10;21.84;97319.44;5015119;28;20467;-62
2022/05/04 08:42:23;;;;;;;0.15;0.15;;;;;;;19.02;21.88;97315.50;5014191;28;20077;-63
2022/05/04 08:44:54;;;;;;;0.22;0.22;;;;;;;18.85;21.94;97317.09;5013474;28;20034;-61
2022/05/04 08:47:21;;;;;;;0.22;0.22;;;;;;;18.73;22.19;97317.75;5013278;28;20034;-63
2022/05/04 08:49:48;;;;;;;0.43;0.43;;;;;;;18.61;22.41;97320.34;5012214;28;20060;-62
2022/05/04 08:52:15;;;;;;;0.20;0.20;;;;;;;18.42;22.59;97330.91;5012627;28;20041;-63
2022/05/04 08:54:43;;;;;;;0.10;0.10;;;;;;;18.36;22.30;97328.28;5012439;28;20495;-63
2022/05/04 08:57:09;;;;;;;0.20;0.20;;;;;;;18.41;22.31;97307.06;5012727;28;20457;-62
2022/05/04 08:59:35;;;;;;;0.20;0.20;;;;;;;18.37;22.29;97318.00;5012684;28;20096;-63
2022/05/04 09:02:01;;;;;;;0.63;0.60;;;;;;;18.43;22.43;97322.25;5012281;28;20384;-64
2022/05/04 09:04:30;;;;;;;0.60;0.60;;;;;;;18.65;22.11;97312.16;5012199;28;20488;-62
2022/05/04 09:06:56;;;;;;;0.40;0.40;;;;;;;18.81;22.05;97302.22;5012579;28;20401;-62
2022/05/04 09:09:22;;;;;;;0.10;0.10;;;;;;;18.84;21.82;97309.91;5012420;28;20037;-62
2022/05/04 09:11:48;;;;;;;0.40;0.15;;;;;;;18.75;22.05;97317.41;5012460;28;20034;-62
2022/05/04 09:14:20;;;;;;;0.20;0.20;;;;;;;18.77;22.12;97309.59;5012373;28;20030;-62
2022/05/04 09:16:47;;;;;;;0.10;0.10;;;;;;;18.73;22.10;97301.06;5011708;28;20460;-62
2022/05/04 09:19:18;;;;;;;0.32;0.32;;;;;;;18.64;22.27;97316.09;5016634;28;20096;-64
2022/05/04 09:21:47;;;;;;;0.25;0.20;;;;;;;18.68;21.98;97314.28;5015169;28;20061;-64
2022/05/04 09:24:25;;;;;;;0.45;0.45;;;;;;;18.72;21.88;97312.50;5013036;28;20029;-63
2022/05/04 09:26:54;;;;;;;0.10;0.10;;;;;;;18.70;22.04;97303.69;5013134;28;20124;-63
2022/05/04 09:29:20;;;;;;;0.20;0.20;;;;;;;18.66;22.12;97297.13;5012735;28;20087;-62
2022/05/04 09:31:47;;;;;;;0.10;0.10;;;;;;;18.58;22.27;97278.47;5013010;28;20033;-62
2022/05/04 09:34:14;;;;;;;1.65;0.50;;;;;;;18.49;22.11;97290.41;5013027;28;20065;-63
2022/05/04 09:45:20;;;;;;;0.10;0.10;;;;;;;18.56;21.93;97276.03;5012466;28;20088;-62
2022/05/04 09:47:47;;;;;;;0.20;0.20;;;;;;;18.47;22.10;97284.34;5006808;28;20038;-62
2022/05/04 09:50:14;;;;;;;0.10;0.10;;;;;;;18.59;21.99;97280.13;5010913;28;20054;-60
2022/05/04 09:52:48;;;;;;;0.10;0.10;;;;;;;18.72;21.91;97287.50;5014243;28;20036;-63
2022/05/04 09:55:25;;;;;;;0.13;0.13;;;;;;;18.69;21.84;97274.25;5011333;28;20029;-63
2022/05/04 09:57:55;;;;;;;0.10;0.10;;;;;;;18.66;21.95;97286.81;5012798;28;20092;-62
2022/05/04 10:00:23;;;;;;;0.20;0.20;;;;;;;18.72;21.73;97271.63;5012680;28;20041;-62
2022/05/04 10:02:51;;;;;;;0.20;0.20;;;;;;;18.74;21.74;97283.25;5012378;28;20045;-62
2022/05/04 10:05:20;;;;;;;0.20;0.20;;;;;;;18.70;21.94;97287.00;5012363;28;20038;-63
2022/05/04 10:07:49;;;;;;;0.60;0.50;;;;;;;18.72;21.85;97271.63;5012351;28;20029;-62
2022/05/04 10:10:17;;;;;;;0.10;0.10;;;;;;;18.79;21.81;97281.47;5011497;28;20411;-63
2022/05/04 10:12:44;;;;;;;0.20;0.20;;;;;;;18.85;21.90;97280.16;5012798;28;20088;-63
2022/05/04 10:15:19;;;;;;;0.10;0.10;;;;;;;18.89;21.94;97279.19;5012964;28;20030;-62
2022/05/04 10:17:54;;;;;;;0.47;0.22;;;;;;;18.95;21.88;97273.44;5012321;28;20435;-64
2022/05/04 10:20:41;;;;;;;0.20;0.20;;;;;;;19.04;21.72;97268.72;5014146;28;20505;-65
2022/05/04 10:23:19;;;;;;;0.10;0.10;;;;;;;19.25;21.61;97280.78;5014276;28;20046;-64
2022/05/04 10:25:45;;;;;;;0.52;0.52;;;;;;;19.36;21.59;97280.44;5015652;28;20556;-63
2022/05/04 10:28:14;;;;;;;0.15;0.15;;;;;;;19.26;21.47;97271.31;5015349;28;20109;-62
2022/05/04 10:30:57;;;;;;;1.75;0.43;;;;;;;19.11;21.68;97271.81;5018092;28;20052;-61
2022/05/04 10:33:35;;;;;;;0.10;0.10;;;;;;;19.04;21.70;97269.53;5017965;28;20045;-64
2022/05/04 10:36:20;;;;;;;0.10;0.10;;;;;;;19.00;21.92;97262.19;5016908;28;20455;-63
2022/05/04 10:38:52;;;;;;;0.25;0.25;;;;;;;18.96;21.92;97250.06;5017127;28;20328;-65
2022/05/04 10:41:36;;;;;;;0.35;0.35;;;;;;;18.91;21.85;97249.06;5016052;28;20037;-63
2022/05/04 10:44:03;;;;;;;1.20;1.10;;;;;;;18.95;21.88;97259.53;5016221;28;20026;-63
2022/05/04 10:46:31;;;;;;;0.30;0.30;;;;;;;18.94;21.96;97246.81;5016309;28;20022;-63
2022/05/04 10:49:02;;;;;;;0.40;0.40;;;;;;;18.95;21.97;97253.97;5015312;28;20064;-64
2022/05/04 10:51:29;;;;;;;0.20;0.20;;;;;;;18.93;22.00;97261.84;5016045;28;20058;-62
2022/05/04 10:54:05;;;;;;;0.10;0.10;;;;;;;18.85;22.04;97253.16;5016267;28;20463;-64
2022/05/04 10:56:41;;;;;;;0.10;0.10;;;;;;;18.76;22.07;97255.13;5016360;28;20033;-62
2022/05/04 10:59:07;;;;;;;0.10;0.10;;;;;;;18.78;22.10;97249.22;5015513;28;20041;-64
2022/05/04 11:01:36;;;;;;;10.15;1.13;;;;;;;18.86;21.84;97254.81;5015600;28;20034;-64
2022/05/04 11:04:15;;;;;;;0.20;0.20;;;;;;;18.91;22.03;97246.28;5015686;28;20455;-63
2022/05/04 11:06:53;;;;;;;0.57;0.43;;;;;;;18.93;21.82;97237.63;5016648;28;20073;-63
2022/05/04 11:09:29;;;;;;;0.20;0.20;;;;;;;18.83;21.94;97226.81;5015386;28;20556;-64
2022/05/04 11:12:04;;;;;;;0.55;0.55;;;;;;;18.72;21.96;97206.88;5016859;28;20034;-63
2022/05/04 11:14:34;;;;;;;0.30;0.30;;;;;;;18.60;22.16;97206.72;5015643;28;20033;-63
2022/05/04 11:17:01;;;;;;;0.10;0.10;;;;;;;18.48;22.24;97222.06;5015554;28;20117;-64
2022/05/04 11:19:29;;;;;;;0.20;0.20;;;;;;;18.37;22.34;97215.19;5014652;28;20029;-62
2022/05/04 11:21:57;;;;;;;1.70;0.73;;;;;;;18.18;22.32;97205.19;5015331;28;20049;-63
2022/05/04 11:24:26;;;;;;;0.10;0.10;;;;;;;18.04;22.68;97207.28;5015273;28;20041;-64
2022/05/04 11:26:52;;;;;;;0.10;0.10;;;;;;;17.99;22.61;97201.88;5015311;28;20036;-63
2022/05/04 11:29:23;;;;;;;0.10;0.10;;;;;;;18.01;22.40;97194.88;5015439;28;20029;-66
2022/05/04 11:32:00;;;;;;;0.20;0.20;;;;;;;18.11;22.17;97185.41;5015819;28;20041;-65
2022/05/04 11:34:25;;;;;;;0.10;0.10;;;;;;;18.14;22.27;97195.06;5015005;28;20443;-63
2022/05/04 11:36:54;;;;;;;0.20;0.20;;;;;;;18.10;22.40;97186.56;5015437;28;20041;-66
2022/05/04 11:39:23;;;;;;;0.10;0.10;;;;;;;18.07;22.09;97191.94;5015537;28;20030;-63
2022/05/04 11:41:50;;;;;;;0.57;0.57;;;;;;;18.09;22.45;97182.13;5014745;28;20042;-64
2022/05/04 11:44:21;;;;;;;0.60;0.60;;;;;;;18.12;22.33;97184.25;5013877;28;20037;-64
2022/05/04 11:46:51;;;;;;;0.40;0.40;;;;;;;18.03;22.19;97175.94;5014815;28;20045;-63
2022/05/04 11:49:37;;;;;;;0.30;0.30;;;;;;;17.91;22.30;97172.94;5014157;28;20554;-62
2022/05/04 11:52:04;;;;;;;0.17;0.17;;;;;;;17.79;22.60;97176.31;5013920;28;20416;-64
2022/05/04 11:54:30;;;;;;;0.10;0.10;;;;;;;17.74;22.44;97168.16;5004017;28;20503;-63
2022/05/04 11:56:56;;;;;;;0.70;0.70;;;;;;;17.73;22.54;97171.25;5013617;28;20038;-63
2022/05/04 11:59:30;;;;;;;0.65;0.65;;;;;;;17.73;22.66;97160.16;5013782;28;20381;-62
2022/05/04 12:01:56;;;;;;;0.10;0.10;;;;;;;17.65;22.22;97181.16;5014326;28;20040;-63
2022/05/04 12:04:22;;;;;;;0.30;0.30;;;;;;;17.50;22.71;97161.06;5014783;28;20121;-66
2022/05/04 12:06:48;;;;;;;0.10;0.10;;;;;;;17.50;22.50;97168.53;5014233;28;20041;-64
2022/05/04 12:09:15;;;;;;;0.20;0.20;;;;;;;17.54;22.49;97144.56;5014263;28;20041;-64
2022/05/04 12:11:40;;;;;;;0.25;0.25;;;;;;;17.54;22.72;97169.53;5015209;28;20462;-64